Leaf Park, Pennsylvania
Current Conditions -  °F | °C
As of 3:53 AM on Sunday 23 Nov 2014 (Local Time) from KLNS Reporting Station
Overcast Overcast  
Wind Chill: 31°   Ceiling: 9000
Heat Index: 35°   Visibility: 10mi
Dew Point: 24°   Wind: 5mph
Humidity: 64%   Direction: 40°NE
Pressure: 30.19"   Gusts: NA
Location:  40.0115°N, 76.3553°W
Report Text: KLNS 230853Z AUTO 04004KT 10SM OVC090 02/M04 A3019 RMK AO2 SLP226 T00171044 55004
Loading
Personal Weather Stations






























Interactive Weather Map New forecast layout! Learn more

10-Day Weather Forecast

Advertisements
Track Severe Weather on mobile